sensor_id;sensor_type;location;lat;lon;timestamp;P1;durP1;ratioP1;P2;durP2;ratioP2
12770;SDS011;6449;47.666;9.160;2022-08-11T00:00:44;1.67;;;1.55;;
12770;SDS011;6449;47.666;9.160;2022-08-11T00:05:43;1.35;;;1.25;;
12770;SDS011;6449;47.666;9.160;2022-08-11T00:10:38;2.10;;;1.20;;
12770;SDS011;6449;47.666;9.160;2022-08-11T00:15:36;1.88;;;1.67;;
12770;SDS011;6449;47.666;9.160;2022-08-11T00:20:40;1.98;;;1.50;;
12770;SDS011;6449;47.666;9.160;2022-08-11T00:25:36;1.75;;;1.45;;
12770;SDS011;6449;47.666;9.160;2022-08-11T00:30:37;1.52;;;1.40;;
12770;SDS011;6449;47.666;9.160;2022-08-11T00:35:32;1.45;;;1.35;;
12770;SDS011;6449;47.666;9.160;2022-08-11T00:40:50;2.58;;;1.65;;
12770;SDS011;6449;47.666;9.160;2022-08-11T00:46:01;1.52;;;1.42;;
12770;SDS011;6449;47.666;9.160;2022-08-11T00:51:19;1.85;;;1.60;;
12770;SDS011;6449;47.666;9.160;2022-08-11T00:57:07;1.50;;;1.40;;
12770;SDS011;6449;47.666;9.160;2022-08-11T01:02:38;1.90;;;1.80;;
12770;SDS011;6449;47.666;9.160;2022-08-11T01:08:16;1.70;;;1.60;;
12770;SDS011;6449;47.666;9.160;2022-08-11T01:13:45;1.50;;;1.40;;
12770;SDS011;6449;47.666;9.160;2022-08-11T01:37:47;3.55;;;1.80;;
12770;SDS011;6449;47.666;9.160;2022-08-11T01:43:44;1.83;;;1.65;;
12770;SDS011;6449;47.666;9.160;2022-08-11T01:49:38;2.42;;;1.65;;
12770;SDS011;6449;47.666;9.160;2022-08-11T01:55:06;1.70;;;1.60;;
12770;SDS011;6449;47.666;9.160;2022-08-11T02:00:21;2.47;;;2.08;;
12770;SDS011;6449;47.666;9.160;2022-08-11T02:10:53;3.35;;;1.67;;
12770;SDS011;6449;47.666;9.160;2022-08-11T02:16:16;2.25;;;1.85;;
12770;SDS011;6449;47.666;9.160;2022-08-11T02:21:26;1.85;;;1.75;;
12770;SDS011;6449;47.666;9.160;2022-08-11T02:26:59;2.15;;;1.70;;
12770;SDS011;6449;47.666;9.160;2022-08-11T02:32:13;1.70;;;1.60;;
12770;SDS011;6449;47.666;9.160;2022-08-11T02:37:33;1.95;;;1.85;;
12770;SDS011;6449;47.666;9.160;2022-08-11T02:42:48;2.45;;;1.58;;
12770;SDS011;6449;47.666;9.160;2022-08-11T02:47:54;1.60;;;1.50;;
12770;SDS011;6449;47.666;9.160;2022-08-11T02:53:16;4.68;;;1.60;;
12770;SDS011;6449;47.666;9.160;2022-08-11T02:58:27;1.88;;;1.77;;
12770;SDS011;6449;47.666;9.160;2022-08-11T03:03:35;2.70;;;1.70;;
12770;SDS011;6449;47.666;9.160;2022-08-11T03:08:48;2.38;;;2.17;;
12770;SDS011;6449;47.666;9.160;2022-08-11T03:13:51;1.75;;;1.65;;
12770;SDS011;6449;47.666;9.160;2022-08-11T03:19:21;2.08;;;1.90;;
12770;SDS011;6449;47.666;9.160;2022-08-11T03:24:28;1.77;;;1.67;;
12770;SDS011;6449;47.666;9.160;2022-08-11T03:29:38;2.60;;;1.70;;
12770;SDS011;6449;47.666;9.160;2022-08-11T03:34:39;2.08;;;1.98;;
12770;SDS011;6449;47.666;9.160;2022-08-11T03:39:43;2.58;;;1.90;;
12770;SDS011;6449;47.666;9.160;2022-08-11T03:44:52;2.88;;;1.90;;
12770;SDS011;6449;47.666;9.160;2022-08-11T03:50:02;2.33;;;2.13;;
12770;SDS011;6449;47.666;9.160;2022-08-11T03:55:09;2.20;;;2.00;;
12770;SDS011;6449;47.666;9.160;2022-08-11T04:00:21;3.33;;;1.80;;
12770;SDS011;6449;47.666;9.160;2022-08-11T04:06:04;2.78;;;2.00;;
12770;SDS011;6449;47.666;9.160;2022-08-11T04:11:53;3.13;;;2.22;;
12770;SDS011;6449;47.666;9.160;2022-08-11T04:17:55;2.22;;;1.90;;
12770;SDS011;6449;47.666;9.160;2022-08-11T04:23:54;2.03;;;1.92;;
12770;SDS011;6449;47.666;9.160;2022-08-11T04:29:34;2.15;;;2.03;;
12770;SDS011;6449;47.666;9.160;2022-08-11T04:35:05;2.25;;;2.15;;
12770;SDS011;6449;47.666;9.160;2022-08-11T04:46:10;2.97;;;2.30;;
12770;SDS011;6449;47.666;9.160;2022-08-11T04:51:35;2.78;;;2.53;;
12770;SDS011;6449;47.666;9.160;2022-08-11T04:57:32;2.90;;;2.40;;
12770;SDS011;6449;47.666;9.160;2022-08-11T05:03:08;2.50;;;2.30;;
12770;SDS011;6449;47.666;9.160;2022-08-11T05:14:31;3.60;;;2.30;;
12770;SDS011;6449;47.666;9.160;2022-08-11T05:19:48;2.83;;;2.33;;
12770;SDS011;6449;47.666;9.160;2022-08-11T05:25:01;3.50;;;2.17;;
12770;SDS011;6449;47.666;9.160;2022-08-11T05:30:39;2.50;;;2.30;;
12770;SDS011;6449;47.666;9.160;2022-08-11T05:35:55;3.17;;;2.47;;
12770;SDS011;6449;47.666;9.160;2022-08-11T05:41:01;3.15;;;2.60;;
12770;SDS011;6449;47.666;9.160;2022-08-11T05:46:13;5.45;;;2.60;;
12770;SDS011;6449;47.666;9.160;2022-08-11T05:51:31;3.30;;;2.50;;
12770;SDS011;6449;47.666;9.160;2022-08-11T05:56:49;2.47;;;2.28;;
12770;SDS011;6449;47.666;9.160;2022-08-11T06:01:46;2.00;;;1.90;;
12770;SDS011;6449;47.666;9.160;2022-08-11T06:06:48;5.55;;;2.25;;
12770;SDS011;6449;47.666;9.160;2022-08-11T06:11:46;3.55;;;2.10;;
12770;SDS011;6449;47.666;9.160;2022-08-11T06:16:41;3.80;;;2.35;;
12770;SDS011;6449;47.666;9.160;2022-08-11T06:21:42;2.67;;;2.20;;
12770;SDS011;6449;47.666;9.160;2022-08-11T06:26:39;3.05;;;1.88;;
12770;SDS011;6449;47.666;9.160;2022-08-11T06:32:01;2.67;;;2.47;;
12770;SDS011;6449;47.666;9.160;2022-08-11T06:36:59;2.53;;;2.33;;
12770;SDS011;6449;47.666;9.160;2022-08-11T06:42:09;2.38;;;2.17;;
12770;SDS011;6449;47.666;9.160;2022-08-11T06:47:15;2.45;;;2.20;;
12770;SDS011;6449;47.666;9.160;2022-08-11T06:52:11;2.72;;;2.38;;
12770;SDS011;6449;47.666;9.160;2022-08-11T06:57:26;2.42;;;2.20;;
12770;SDS011;6449;47.666;9.160;2022-08-11T07:02:42;1.85;;;1.75;;
12770;SDS011;6449;47.666;9.160;2022-08-11T07:13:43;2.50;;;2.30;;
12770;SDS011;6449;47.666;9.160;2022-08-11T07:18:59;2.60;;;2.03;;
12770;SDS011;6449;47.666;9.160;2022-08-11T07:24:14;2.55;;;2.05;;
12770;SDS011;6449;47.666;9.160;2022-08-11T07:29:52;3.55;;;2.30;;
12770;SDS011;6449;47.666;9.160;2022-08-11T07:34:51;2.65;;;2.45;;
12770;SDS011;6449;47.666;9.160;2022-08-11T07:39:53;2.75;;;2.10;;
12770;SDS011;6449;47.666;9.160;2022-08-11T07:44:50;2.40;;;2.20;;
12770;SDS011;6449;47.666;9.160;2022-08-11T07:50:06;4.05;;;2.28;;
12770;SDS011;6449;47.666;9.160;2022-08-11T07:55:21;2.40;;;2.20;;
12770;SDS011;6449;47.666;9.160;2022-08-11T08:00:37;3.88;;;2.55;;
12770;SDS011;6449;47.666;9.160;2022-08-11T08:06:02;2.45;;;2.25;;
12770;SDS011;6449;47.666;9.160;2022-08-11T08:11:26;2.63;;;2.30;;
12770;SDS011;6449;47.666;9.160;2022-08-11T08:16:38;3.15;;;2.60;;
12770;SDS011;6449;47.666;9.160;2022-08-11T08:21:52;2.92;;;2.40;;
12770;SDS011;6449;47.666;9.160;2022-08-11T08:27:07;3.50;;;2.30;;
12770;SDS011;6449;47.666;9.160;2022-08-11T08:32:04;2.40;;;2.20;;
12770;SDS011;6449;47.666;9.160;2022-08-11T08:37:00;2.85;;;2.17;;
12770;SDS011;6449;47.666;9.160;2022-08-11T08:42:16;2.20;;;2.00;;
12770;SDS011;6449;47.666;9.160;2022-08-11T08:47:17;4.10;;;2.63;;
12770;SDS011;6449;47.666;9.160;2022-08-11T08:52:34;2.50;;;2.30;;
12770;SDS011;6449;47.666;9.160;2022-08-11T08:57:35;2.42;;;2.08;;
12770;SDS011;6449;47.666;9.160;2022-08-11T09:02:30;2.53;;;2.33;;
12770;SDS011;6449;47.666;9.160;2022-08-11T09:07:25;2.80;;;2.35;;
12770;SDS011;6449;47.666;9.160;2022-08-11T09:12:31;2.78;;;2.33;;
12770;SDS011;6449;47.666;9.160;2022-08-11T09:17:30;2.05;;;1.95;;
12770;SDS011;6449;47.666;9.160;2022-08-11T09:22:30;3.67;;;2.10;;
12770;SDS011;6449;47.666;9.160;2022-08-11T09:28:06;3.08;;;2.30;;
12770;SDS011;6449;47.666;9.160;2022-08-11T09:33:04;4.35;;;2.30;;
12770;SDS011;6449;47.666;9.160;2022-08-11T09:37:58;5.65;;;2.70;;
12770;SDS011;6449;47.666;9.160;2022-08-11T09:43:12;2.40;;;2.20;;
12770;SDS011;6449;47.666;9.160;2022-08-11T09:48:28;2.83;;;2.22;;
12770;SDS011;6449;47.666;9.160;2022-08-11T09:53:29;3.22;;;2.42;;
12770;SDS011;6449;47.666;9.160;2022-08-11T09:58:32;2.70;;;2.50;;
12770;SDS011;6449;47.666;9.160;2022-08-11T10:03:33;2.88;;;2.42;;
12770;SDS011;6449;47.666;9.160;2022-08-11T10:08:33;2.58;;;2.38;;
12770;SDS011;6449;47.666;9.160;2022-08-11T10:13:34;2.80;;;2.60;;
12770;SDS011;6449;47.666;9.160;2022-08-11T10:19:07;2.53;;;2.33;;
12770;SDS011;6449;47.666;9.160;2022-08-11T10:24:02;2.45;;;2.20;;
12770;SDS011;6449;47.666;9.160;2022-08-11T10:29:19;3.08;;;2.40;;
12770;SDS011;6449;47.666;9.160;2022-08-11T10:34:40;2.50;;;2.30;;
12770;SDS011;6449;47.666;9.160;2022-08-11T10:39:44;2.55;;;2.35;;
12770;SDS011;6449;47.666;9.160;2022-08-11T10:44:41;2.25;;;2.15;;
12770;SDS011;6449;47.666;9.160;2022-08-11T10:49:39;3.20;;;2.42;;
12770;SDS011;6449;47.666;9.160;2022-08-11T10:54:33;2.47;;;2.28;;
12770;SDS011;6449;47.666;9.160;2022-08-11T10:59:50;2.28;;;2.10;;
12770;SDS011;6449;47.666;9.160;2022-08-11T11:04:56;3.75;;;2.50;;
12770;SDS011;6449;47.666;9.160;2022-08-11T11:10:00;2.60;;;2.35;;
12770;SDS011;6449;47.666;9.160;2022-08-11T11:14:58;2.95;;;2.30;;
12770;SDS011;6449;47.666;9.160;2022-08-11T11:20:16;2.65;;;2.40;;
12770;SDS011;6449;47.666;9.160;2022-08-11T11:25:37;2.60;;;2.40;;
12770;SDS011;6449;47.666;9.160;2022-08-11T11:31:05;2.35;;;2.15;;
12770;SDS011;6449;47.666;9.160;2022-08-11T11:36:13;2.72;;;2.50;;
12770;SDS011;6449;47.666;9.160;2022-08-11T11:41:18;2.50;;;2.30;;
12770;SDS011;6449;47.666;9.160;2022-08-11T11:46:19;2.22;;;2.13;;
12770;SDS011;6449;47.666;9.160;2022-08-11T11:51:18;3.03;;;2.28;;
12770;SDS011;6449;47.666;9.160;2022-08-11T11:56:13;2.95;;;2.35;;
12770;SDS011;6449;47.666;9.160;2022-08-11T12:01:08;2.47;;;2.28;;
12770;SDS011;6449;47.666;9.160;2022-08-11T12:06:11;2.90;;;2.65;;
12770;SDS011;6449;47.666;9.160;2022-08-11T12:11:06;3.50;;;2.47;;
12770;SDS011;6449;47.666;9.160;2022-08-11T12:16:20;3.50;;;2.40;;
12770;SDS011;6449;47.666;9.160;2022-08-11T12:21:27;2.58;;;2.38;;
12770;SDS011;6449;47.666;9.160;2022-08-11T12:26:22;2.60;;;2.40;;
12770;SDS011;6449;47.666;9.160;2022-08-11T12:31:53;2.67;;;2.47;;
12770;SDS011;6449;47.666;9.160;2022-08-11T12:36:50;4.20;;;2.28;;
12770;SDS011;6449;47.666;9.160;2022-08-11T12:41:49;2.50;;;2.25;;
12770;SDS011;6449;47.666;9.160;2022-08-11T12:46:58;2.45;;;2.25;;
12770;SDS011;6449;47.666;9.160;2022-08-11T12:51:54;2.35;;;2.20;;
12770;SDS011;6449;47.666;9.160;2022-08-11T12:57:06;2.28;;;2.13;;
12770;SDS011;6449;47.666;9.160;2022-08-11T13:02:28;4.88;;;2.40;;
12770;SDS011;6449;47.666;9.160;2022-08-11T13:07:42;2.63;;;2.42;;
12770;SDS011;6449;47.666;9.160;2022-08-11T13:12:41;6.78;;;2.40;;
12770;SDS011;6449;47.666;9.160;2022-08-11T13:17:41;2.50;;;2.30;;
12770;SDS011;6449;47.666;9.160;2022-08-11T13:22:35;2.63;;;2.42;;
12770;SDS011;6449;47.666;9.160;2022-08-11T13:27:37;2.53;;;2.22;;
12770;SDS011;6449;47.666;9.160;2022-08-11T13:32:32;4.55;;;2.45;;
12770;SDS011;6449;47.666;9.160;2022-08-11T13:37:26;2.67;;;2.25;;
12770;SDS011;6449;47.666;9.160;2022-08-11T13:42:41;2.88;;;2.67;;
12770;SDS011;6449;47.666;9.160;2022-08-11T13:47:36;2.60;;;2.35;;
12770;SDS011;6449;47.666;9.160;2022-08-11T13:52:33;2.67;;;2.30;;
12770;SDS011;6449;47.666;9.160;2022-08-11T13:57:30;3.90;;;2.45;;
12770;SDS011;6449;47.666;9.160;2022-08-11T14:02:47;2.40;;;2.20;;
12770;SDS011;6449;47.666;9.160;2022-08-11T14:07:47;2.70;;;2.50;;
12770;SDS011;6449;47.666;9.160;2022-08-11T14:12:45;2.28;;;2.13;;
12770;SDS011;6449;47.666;9.160;2022-08-11T14:18:05;2.33;;;2.10;;
12770;SDS011;6449;47.666;9.160;2022-08-11T14:23:02;4.00;;;2.60;;
12770;SDS011;6449;47.666;9.160;2022-08-11T14:27:57;2.40;;;2.20;;
12770;SDS011;6449;47.666;9.160;2022-08-11T14:33:12;2.35;;;2.15;;
12770;SDS011;6449;47.666;9.160;2022-08-11T14:38:11;3.17;;;2.63;;
12770;SDS011;6449;47.666;9.160;2022-08-11T14:43:04;2.47;;;2.28;;
12770;SDS011;6449;47.666;9.160;2022-08-11T14:48:37;2.47;;;2.28;;
12770;SDS011;6449;47.666;9.160;2022-08-11T14:53:35;2.80;;;2.53;;
12770;SDS011;6449;47.666;9.160;2022-08-11T14:58:42;2.28;;;2.13;;
12770;SDS011;6449;47.666;9.160;2022-08-11T15:03:35;2.85;;;2.65;;
12770;SDS011;6449;47.666;9.160;2022-08-11T15:08:50;2.83;;;2.53;;
12770;SDS011;6449;47.666;9.160;2022-08-11T15:13:47;3.03;;;2.83;;
12770;SDS011;6449;47.666;9.160;2022-08-11T15:18:42;2.60;;;2.40;;
12770;SDS011;6449;47.666;9.160;2022-08-11T15:23:37;2.90;;;2.58;;
12770;SDS011;6449;47.666;9.160;2022-08-11T15:28:49;3.65;;;2.60;;
12770;SDS011;6449;47.666;9.160;2022-08-11T15:34:04;4.00;;;2.25;;
12770;SDS011;6449;47.666;9.160;2022-08-11T15:39:18;2.40;;;2.20;;
12770;SDS011;6449;47.666;9.160;2022-08-11T15:44:16;2.40;;;2.20;;
12770;SDS011;6449;47.666;9.160;2022-08-11T15:49:57;2.60;;;2.40;;
12770;SDS011;6449;47.666;9.160;2022-08-11T15:55:05;2.58;;;2.30;;
12770;SDS011;6449;47.666;9.160;2022-08-11T16:00:00;3.63;;;2.60;;
12770;SDS011;6449;47.666;9.160;2022-08-11T16:05:16;2.10;;;2.00;;
12770;SDS011;6449;47.666;9.160;2022-08-11T16:10:30;2.70;;;2.40;;
12770;SDS011;6449;47.666;9.160;2022-08-11T16:15:25;2.63;;;2.42;;
12770;SDS011;6449;47.666;9.160;2022-08-11T16:20:39;3.38;;;2.33;;
12770;SDS011;6449;47.666;9.160;2022-08-11T16:25:35;2.60;;;2.40;;
12770;SDS011;6449;47.666;9.160;2022-08-11T16:30:48;3.28;;;2.50;;
12770;SDS011;6449;47.666;9.160;2022-08-11T16:35:46;2.33;;;2.13;;
12770;SDS011;6449;47.666;9.160;2022-08-11T16:41:01;2.90;;;2.30;;
12770;SDS011;6449;47.666;9.160;2022-08-11T16:46:02;2.70;;;2.47;;
12770;SDS011;6449;47.666;9.160;2022-08-11T16:51:17;2.55;;;2.35;;
12770;SDS011;6449;47.666;9.160;2022-08-11T16:56:11;2.13;;;2.03;;
12770;SDS011;6449;47.666;9.160;2022-08-11T17:01:11;2.45;;;2.25;;
12770;SDS011;6449;47.666;9.160;2022-08-11T17:06:08;2.90;;;2.10;;
12770;SDS011;6449;47.666;9.160;2022-08-11T17:11:22;2.63;;;2.42;;
12770;SDS011;6449;47.666;9.160;2022-08-11T17:16:38;2.25;;;2.08;;
12770;SDS011;6449;47.666;9.160;2022-08-11T17:21:38;3.20;;;2.60;;
12770;SDS011;6449;47.666;9.160;2022-08-11T17:26:51;2.00;;;1.90;;
12770;SDS011;6449;47.666;9.160;2022-08-11T17:31:49;2.47;;;2.30;;
12770;SDS011;6449;47.666;9.160;2022-08-11T17:37:03;3.10;;;2.10;;
12770;SDS011;6449;47.666;9.160;2022-08-11T17:41:58;2.60;;;2.40;;
12770;SDS011;6449;47.666;9.160;2022-08-11T17:47:10;2.97;;;2.50;;
12770;SDS011;6449;47.666;9.160;2022-08-11T17:52:23;2.40;;;2.22;;
12770;SDS011;6449;47.666;9.160;2022-08-11T17:57:41;3.78;;;2.22;;
12770;SDS011;6449;47.666;9.160;2022-08-11T18:02:53;3.55;;;2.60;;
12770;SDS011;6449;47.666;9.160;2022-08-11T18:08:07;5.72;;;2.80;;
12770;SDS011;6449;47.666;9.160;2022-08-11T18:13:22;2.80;;;2.50;;
12770;SDS011;6449;47.666;9.160;2022-08-11T18:18:36;2.60;;;2.40;;
12770;SDS011;6449;47.666;9.160;2022-08-11T18:23:47;6.00;;;2.30;;
12770;SDS011;6449;47.666;9.160;2022-08-11T18:29:02;2.20;;;2.10;;
12770;SDS011;6449;47.666;9.160;2022-08-11T18:34:15;2.50;;;2.30;;
12770;SDS011;6449;47.666;9.160;2022-08-11T18:39:41;2.30;;;2.10;;
12770;SDS011;6449;47.666;9.160;2022-08-11T18:44:58;2.50;;;2.30;;
12770;SDS011;6449;47.666;9.160;2022-08-11T18:50:18;2.28;;;2.00;;
12770;SDS011;6449;47.666;9.160;2022-08-11T18:55:30;2.40;;;2.20;;
12770;SDS011;6449;47.666;9.160;2022-08-11T19:00:45;2.15;;;2.05;;
12770;SDS011;6449;47.666;9.160;2022-08-11T19:05:57;2.15;;;1.95;;
12770;SDS011;6449;47.666;9.160;2022-08-11T19:11:30;4.50;;;2.15;;
12770;SDS011;6449;47.666;9.160;2022-08-11T19:16:51;2.10;;;2.00;;
12770;SDS011;6449;47.666;9.160;2022-08-11T19:22:26;2.42;;;2.05;;
12770;SDS011;6449;47.666;9.160;2022-08-11T19:27:39;2.17;;;2.08;;
12770;SDS011;6449;47.666;9.160;2022-08-11T19:32:56;3.08;;;2.20;;
12770;SDS011;6449;47.666;9.160;2022-08-11T19:38:29;2.38;;;2.17;;
12770;SDS011;6449;47.666;9.160;2022-08-11T19:43:45;2.40;;;2.20;;
12770;SDS011;6449;47.666;9.160;2022-08-11T19:48:59;3.90;;;2.40;;
12770;SDS011;6449;47.666;9.160;2022-08-11T19:54:11;2.10;;;2.00;;
12770;SDS011;6449;47.666;9.160;2022-08-11T19:59:24;2.67;;;2.30;;
12770;SDS011;6449;47.666;9.160;2022-08-11T20:04:40;3.20;;;2.00;;
12770;SDS011;6449;47.666;9.160;2022-08-11T20:09:51;2.65;;;2.15;;
12770;SDS011;6449;47.666;9.160;2022-08-11T20:15:04;2.38;;;2.17;;
12770;SDS011;6449;47.666;9.160;2022-08-11T20:20:19;4.75;;;2.20;;
12770;SDS011;6449;47.666;9.160;2022-08-11T20:25:35;2.55;;;2.35;;
12770;SDS011;6449;47.666;9.160;2022-08-11T20:31:08;2.17;;;2.08;;
12770;SDS011;6449;47.666;9.160;2022-08-11T20:36:23;3.15;;;2.60;;
12770;SDS011;6449;47.666;9.160;2022-08-11T20:41:44;2.92;;;2.10;;
12770;SDS011;6449;47.666;9.160;2022-08-11T20:46:57;2.25;;;2.05;;
12770;SDS011;6449;47.666;9.160;2022-08-11T20:52:11;2.63;;;2.00;;
12770;SDS011;6449;47.666;9.160;2022-08-11T20:57:24;2.30;;;2.05;;
12770;SDS011;6449;47.666;9.160;2022-08-11T21:02:55;2.60;;;2.08;;
12770;SDS011;6449;47.666;9.160;2022-08-11T21:08:28;2.45;;;1.83;;
12770;SDS011;6449;47.666;9.160;2022-08-11T21:13:44;2.83;;;2.10;;
12770;SDS011;6449;47.666;9.160;2022-08-11T21:19:02;2.15;;;1.95;;
12770;SDS011;6449;47.666;9.160;2022-08-11T21:24:43;3.10;;;1.88;;
12770;SDS011;6449;47.666;9.160;2022-08-11T21:29:57;2.08;;;1.88;;
12770;SDS011;6449;47.666;9.160;2022-08-11T21:35:09;2.00;;;1.90;;
12770;SDS011;6449;47.666;9.160;2022-08-11T21:40:22;2.15;;;1.90;;
12770;SDS011;6449;47.666;9.160;2022-08-11T21:45:35;2.22;;;2.03;;
12770;SDS011;6449;47.666;9.160;2022-08-11T21:50:49;1.80;;;1.70;;
12770;SDS011;6449;47.666;9.160;2022-08-11T21:56:02;2.42;;;2.22;;
12770;SDS011;6449;47.666;9.160;2022-08-11T22:01:17;1.80;;;1.67;;
12770;SDS011;6449;47.666;9.160;2022-08-11T22:06:30;3.25;;;2.03;;
12770;SDS011;6449;47.666;9.160;2022-08-11T22:11:43;2.55;;;1.77;;
12770;SDS011;6449;47.666;9.160;2022-08-11T22:17:14;2.08;;;1.88;;
12770;SDS011;6449;47.666;9.160;2022-08-11T22:22:26;2.10;;;1.90;;
12770;SDS011;6449;47.666;9.160;2022-08-11T22:27:45;2.42;;;2.20;;
12770;SDS011;6449;47.666;9.160;2022-08-11T22:32:57;2.50;;;2.30;;
12770;SDS011;6449;47.666;9.160;2022-08-11T22:38:15;2.50;;;2.05;;
12770;SDS011;6449;47.666;9.160;2022-08-11T22:43:29;2.03;;;1.90;;
12770;SDS011;6449;47.666;9.160;2022-08-11T22:48:39;2.53;;;2.33;;
12770;SDS011;6449;47.666;9.160;2022-08-11T22:53:54;2.33;;;2.13;;
12770;SDS011;6449;47.666;9.160;2022-08-11T22:59:07;2.80;;;1.95;;
12770;SDS011;6449;47.666;9.160;2022-08-11T23:04:19;2.40;;;2.20;;
12770;SDS011;6449;47.666;9.160;2022-08-11T23:09:31;2.20;;;2.00;;
12770;SDS011;6449;47.666;9.160;2022-08-11T23:14:43;3.20;;;2.00;;
12770;SDS011;6449;47.666;9.160;2022-08-11T23:19:55;2.05;;;1.95;;
12770;SDS011;6449;47.666;9.160;2022-08-11T23:25:28;3.13;;;2.08;;
12770;SDS011;6449;47.666;9.160;2022-08-11T23:30:43;3.35;;;1.63;;
12770;SDS011;6449;47.666;9.160;2022-08-11T23:35:55;1.80;;;1.70;;
12770;SDS011;6449;47.666;9.160;2022-08-11T23:41:26;1.73;;;1.63;;
12770;SDS011;6449;47.666;9.160;2022-08-11T23:46:39;3.03;;;1.90;;
12770;SDS011;6449;47.666;9.160;2022-08-11T23:51:51;2.22;;;1.65;;
12770;SDS011;6449;47.666;9.160;2022-08-11T23:57:03;1.70;;;1.60;;
